Nimmonsburg, New York
Current Conditions -  °F | °C
As of 12:53 PM on Thursday 30 Oct 2014 (Local Time) from KBGM Reporting Station
Overcast Overcast  
Wind Chill: 41°   Ceiling: 2200
Heat Index: 44°   Visibility: 10mi
Dew Point: 35°   Wind: 6mph
Humidity: 71%   Direction: 300°WNW
Pressure: 30.01"   Gusts: NA
Location:  42.1934°N, 75.8849°W
Report Text: KBGM 301653Z 30005KT 10SM BKN022 OVC026 07/02 A3001 RMK AO2 SLP171 T00670017
Loading
Personal Weather Stations






























Interactive Weather Map
Tropical Storm Tracking
New forecast layout! Learn more

10-Day Weather Forecast

Advertisements
Track Severe Weather on mobile